createdAt,value
2022-08-10T00:00:16.024Z,0.00
2022-08-10T00:02:08.915Z,0.00
2022-08-10T00:03:08.905Z,0.00
2022-08-10T00:05:12.864Z,0.00
2022-08-10T00:06:12.854Z,0.00
2022-08-10T00:08:22.441Z,0.00
2022-08-10T00:09:16.810Z,0.00
2022-08-10T00:11:20.780Z,0.00
2022-08-10T00:12:20.769Z,0.00
2022-08-10T00:14:24.720Z,0.00
2022-08-10T00:15:52.510Z,0.00
2022-08-10T00:17:28.685Z,0.00
2022-08-10T00:18:34.905Z,0.00
2022-08-10T00:20:32.627Z,0.00
2022-08-10T00:21:32.623Z,0.00
2022-08-10T00:23:36.581Z,0.00
2022-08-10T00:24:40.181Z,0.00
2022-08-10T00:27:52.061Z,0.00
2022-08-10T00:28:01.355Z,0.00
2022-08-10T00:29:44.473Z,0.00
2022-08-10T00:30:44.462Z,0.00
2022-08-10T00:32:48.428Z,0.00
2022-08-10T00:33:48.421Z,0.00
2022-08-10T00:35:52.392Z,0.00
2022-08-10T00:36:52.370Z,0.00
2022-08-10T00:38:56.329Z,0.00
2022-08-10T00:39:56.385Z,0.00
2022-08-10T00:42:07.235Z,0.00
2022-08-10T00:42:49.195Z,0.00
2022-08-10T00:44:53.151Z,0.00
2022-08-10T00:45:58.516Z,0.00
2022-08-10T00:47:57.109Z,0.00
2022-08-10T00:49:00.699Z,0.00
2022-08-10T00:51:01.061Z,0.00
2022-08-10T00:52:01.050Z,0.00
2022-08-10T00:54:05.008Z,0.00
2022-08-10T00:55:05.003Z,0.00
2022-08-10T00:57:16.268Z,0.00
2022-08-10T00:58:08.942Z,0.00
2022-08-10T01:00:12.902Z,0.00
2022-08-10T01:02:09.962Z,0.00
2022-08-10T01:03:16.869Z,0.00
2022-08-10T01:04:57.984Z,0.00
2022-08-10T01:06:20.816Z,0.00
2022-08-10T01:07:20.794Z,0.00
2022-08-10T01:09:24.752Z,0.00
2022-08-10T01:10:24.742Z,0.00
2022-08-10T01:12:39.752Z,0.00
2022-08-10T01:13:28.694Z,0.00
2022-08-10T01:15:32.650Z,0.00
2022-08-10T01:16:32.648Z,0.00
2022-08-10T01:18:37.941Z,0.00
2022-08-10T01:19:36.594Z,0.00
2022-08-10T01:21:29.486Z,0.00
2022-08-10T01:22:29.468Z,0.00
2022-08-10T01:24:33.433Z,0.00
2022-08-10T01:25:33.416Z,0.00
2022-08-10T01:27:37.387Z,0.00
2022-08-10T01:28:37.373Z,0.00
2022-08-10T01:30:41.399Z,0.00
2022-08-10T01:31:41.383Z,0.00
2022-08-10T01:33:58.564Z,0.00
2022-08-10T01:34:45.334Z,0.00
2022-08-10T01:35:45.330Z,0.00
2022-08-10T01:36:45.328Z,0.00
2022-08-10T01:37:52.332Z,0.00
2022-08-10T01:38:45.334Z,0.00
2022-08-10T01:39:45.441Z,0.00
2022-08-10T01:40:45.323Z,0.00
2022-08-10T01:41:46.618Z,0.00
2022-08-10T01:42:45.313Z,0.00
2022-08-10T01:43:45.306Z,0.00
2022-08-10T01:44:45.306Z,0.00
2022-08-10T01:45:46.106Z,0.00
2022-08-10T01:46:45.298Z,0.00
2022-08-10T01:47:45.294Z,0.00
2022-08-10T01:48:45.295Z,0.00
2022-08-10T01:49:45.292Z,0.00
2022-08-10T01:50:59.870Z,0.00
2022-08-10T01:51:45.282Z,0.00
2022-08-10T01:52:45.283Z,0.00
2022-08-10T01:53:45.275Z,0.00
2022-08-10T01:54:45.275Z,0.00
2022-08-10T01:55:45.274Z,0.00
2022-08-10T01:56:45.270Z,0.00
2022-08-10T01:57:45.264Z,0.00
2022-08-10T01:58:45.263Z,0.00
2022-08-10T01:59:58.795Z,0.00
2022-08-10T02:00:45.256Z,0.00
2022-08-10T02:01:45.375Z,0.00
2022-08-10T02:02:45.251Z,0.00
2022-08-10T02:04:04.072Z,0.00
2022-08-10T02:04:45.243Z,0.00
2022-08-10T02:05:45.238Z,0.00
2022-08-10T02:06:45.243Z,0.00
2022-08-10T02:07:45.236Z,0.00
2022-08-10T02:08:45.230Z,0.00
2022-08-10T02:09:45.224Z,0.00
2022-08-10T02:10:45.225Z,0.00
2022-08-10T02:12:05.202Z,0.00
2022-08-10T02:12:45.223Z,0.00
2022-08-10T02:13:45.211Z,0.00
2022-08-10T02:14:45.211Z,0.00
2022-08-10T02:16:01.024Z,0.00
2022-08-10T02:16:45.194Z,0.00
2022-08-10T02:18:00.827Z,0.00
2022-08-10T02:18:45.197Z,0.00
2022-08-10T02:19:45.195Z,0.00
2022-08-10T02:20:45.193Z,0.00
2022-08-10T02:22:38.229Z,0.00
2022-08-10T02:22:45.213Z,0.00
2022-08-10T02:23:45.179Z,0.00
2022-08-10T02:24:45.184Z,0.00
2022-08-10T02:25:45.176Z,0.00
2022-08-10T02:26:45.171Z,0.00
2022-08-10T02:27:45.167Z,0.00
2022-08-10T02:28:45.165Z,0.00
2022-08-10T02:29:45.158Z,0.00
2022-08-10T02:30:45.165Z,0.00
2022-08-10T02:31:45.154Z,0.00
2022-08-10T02:32:51.751Z,0.00
2022-08-10T02:33:56.754Z,0.00
2022-08-10T02:34:45.146Z,0.00
2022-08-10T02:35:55.523Z,0.00
2022-08-10T02:36:45.141Z,0.00
2022-08-10T02:37:45.135Z,0.00
2022-08-10T02:38:58.325Z,0.00
2022-08-10T02:39:45.223Z,0.00
2022-08-10T02:45:01.911Z,0.00
2022-08-10T02:45:15.846Z,0.00
2022-08-10T02:45:18.780Z,0.00
2022-08-10T02:45:19.342Z,0.00
2022-08-10T02:45:22.578Z,0.00
2022-08-10T02:45:45.105Z,0.00
2022-08-10T02:46:45.114Z,0.00
2022-08-10T02:47:51.286Z,0.00
2022-08-10T02:48:45.112Z,0.00
2022-08-10T02:49:45.094Z,0.00
2022-08-10T02:50:45.091Z,0.00
2022-08-10T02:52:08.149Z,0.00
2022-08-10T02:52:45.083Z,0.00
2022-08-10T02:53:55.012Z,0.00
2022-08-10T02:54:45.081Z,0.00
2022-08-10T02:55:45.072Z,0.00
2022-08-10T02:56:45.073Z,0.00
2022-08-10T02:58:13.390Z,0.00
2022-08-10T02:58:45.063Z,0.00
2022-08-10T02:59:45.059Z,0.00
2022-08-10T03:00:45.131Z,0.00
2022-08-10T03:01:45.051Z,0.00
2022-08-10T03:02:45.049Z,0.00
2022-08-10T03:03:45.046Z,0.00
2022-08-10T03:04:55.743Z,0.00
2022-08-10T03:05:45.037Z,0.00
2022-08-10T03:06:45.038Z,0.00
2022-08-10T03:07:45.257Z,0.00
2022-08-10T03:08:45.028Z,0.00
2022-08-10T03:09:45.027Z,0.00
2022-08-10T03:10:45.024Z,0.00
2022-08-10T03:12:37.651Z,0.00
2022-08-10T03:12:45.015Z,0.00
2022-08-10T03:13:46.376Z,0.00
2022-08-10T03:14:45.012Z,0.00
2022-08-10T03:15:45.002Z,0.00
2022-08-10T03:16:45.000Z,0.00
2022-08-10T03:17:57.665Z,0.00
2022-08-10T03:18:44.994Z,0.00
2022-08-10T03:20:34.423Z,0.00
2022-08-10T03:20:44.984Z,0.00
2022-08-10T03:21:44.981Z,0.00
2022-08-10T03:22:44.979Z,0.00
2022-08-10T03:23:44.972Z,0.00
2022-08-10T03:24:44.978Z,0.00
2022-08-10T03:25:53.342Z,0.00
2022-08-10T03:26:44.967Z,0.00
2022-08-10T03:27:44.959Z,0.00
2022-08-10T03:28:44.956Z,0.00
2022-08-10T03:30:29.882Z,0.00
2022-08-10T03:30:44.947Z,0.00
2022-08-10T03:31:44.946Z,0.00
2022-08-10T03:32:44.944Z,0.00
2022-08-10T03:33:44.934Z,0.00
2022-08-10T03:34:44.935Z,0.00
2022-08-10T03:36:43.936Z,0.00
2022-08-10T03:36:45.232Z,0.00
2022-08-10T03:37:44.923Z,0.00
2022-08-10T03:38:44.919Z,0.00
2022-08-10T03:39:45.008Z,0.00
2022-08-10T03:40:46.705Z,0.00
2022-08-10T03:41:53.257Z,0.00
2022-08-10T03:42:44.906Z,0.00
2022-08-10T03:43:44.899Z,0.00
2022-08-10T03:44:49.856Z,0.00
2022-08-10T03:45:55.123Z,0.00
2022-08-10T03:46:44.892Z,0.00
2022-08-10T03:47:44.887Z,0.00
2022-08-10T03:48:49.104Z,0.00
2022-08-10T03:49:44.883Z,0.00
2022-08-10T03:50:51.025Z,0.00
2022-08-10T03:51:44.872Z,0.00
2022-08-10T03:52:44.867Z,0.00
2022-08-10T03:54:04.472Z,0.00
2022-08-10T03:54:44.861Z,0.00
2022-08-10T03:56:28.950Z,0.00
2022-08-10T03:56:44.851Z,0.00
2022-08-10T03:57:49.674Z,0.00
2022-08-10T03:58:44.846Z,0.00
2022-08-10T03:59:44.846Z,0.00
2022-08-10T04:00:44.897Z,0.00
2022-08-10T04:02:46.581Z,0.00
2022-08-10T04:02:52.881Z,0.00
2022-08-10T04:03:44.826Z,0.00
2022-08-10T04:04:44.825Z,0.00
2022-08-10T04:05:44.816Z,0.00
2022-08-10T04:06:44.818Z,0.00
2022-08-10T04:07:44.799Z,0.00
2022-08-10T04:08:44.818Z,0.00
2022-08-10T04:09:55.391Z,0.00
2022-08-10T04:10:44.799Z,0.00
2022-08-10T04:11:44.793Z,0.00
2022-08-10T04:12:44.794Z,0.00
2022-08-10T04:13:44.790Z,0.00
2022-08-10T04:14:50.901Z,0.00
2022-08-10T04:15:44.784Z,0.00
2022-08-10T04:16:44.779Z,5.63
2022-08-10T04:18:03.325Z,5.63
2022-08-10T04:18:44.769Z,5.63
2022-08-10T04:19:44.762Z,5.63
2022-08-10T04:20:44.762Z,5.63
2022-08-10T04:21:44.756Z,5.63
2022-08-10T04:22:44.779Z,5.63
2022-08-10T04:23:44.749Z,5.63
2022-08-10T04:24:44.746Z,5.63
2022-08-10T04:25:44.741Z,5.63
2022-08-10T04:26:44.748Z,5.63
2022-08-10T04:27:44.732Z,5.63
2022-08-10T04:28:44.730Z,5.63
2022-08-10T04:29:44.724Z,5.63
2022-08-10T04:30:44.724Z,5.63
2022-08-10T04:31:44.718Z,11.25
2022-08-10T04:32:44.713Z,11.25
2022-08-10T04:33:44.708Z,11.25
2022-08-10T04:34:44.703Z,11.25
2022-08-10T04:35:44.704Z,11.25
2022-08-10T04:36:44.700Z,11.25
2022-08-10T04:37:47.087Z,11.25
2022-08-10T04:38:44.690Z,11.25
2022-08-10T04:39:44.752Z,11.25
2022-08-10T04:40:44.685Z,11.25
2022-08-10T04:41:47.489Z,11.25
2022-08-10T04:42:44.672Z,11.25
2022-08-10T04:43:44.669Z,11.25
2022-08-10T04:44:44.663Z,11.25
2022-08-10T04:45:49.613Z,16.88
2022-08-10T04:46:57.855Z,16.88
2022-08-10T04:47:57.740Z,16.88
2022-08-10T04:49:01.354Z,16.88
2022-08-10T04:49:55.301Z,16.88
2022-08-10T04:50:44.644Z,16.88
2022-08-10T04:51:44.660Z,16.88
2022-08-10T04:52:44.631Z,16.88
2022-08-10T04:54:03.272Z,16.88
2022-08-10T04:54:44.622Z,16.88
2022-08-10T04:55:44.619Z,16.88
2022-08-10T04:56:44.617Z,16.88
2022-08-10T04:57:44.607Z,16.88
2022-08-10T04:58:44.606Z,22.50
2022-08-10T04:59:44.601Z,22.50
2022-08-10T05:00:44.658Z,22.50
2022-08-10T05:02:28.695Z,22.50
2022-08-10T05:02:44.586Z,22.50
2022-08-10T05:04:35.689Z,22.50
2022-08-10T05:04:44.579Z,22.50
2022-08-10T05:05:44.578Z,22.50
2022-08-10T05:06:44.576Z,22.50
2022-08-10T05:07:53.916Z,22.50
2022-08-10T05:08:44.570Z,22.50
2022-08-10T05:10:02.741Z,28.13
2022-08-10T05:10:44.558Z,28.13
2022-08-10T05:11:44.556Z,28.13
2022-08-10T05:12:44.550Z,28.13
2022-08-10T05:13:44.546Z,28.13
2022-08-10T05:14:44.540Z,28.13
2022-08-10T05:15:44.539Z,28.13
2022-08-10T05:16:44.533Z,28.13
2022-08-10T05:18:06.066Z,28.13
2022-08-10T05:18:44.523Z,28.13
2022-08-10T05:20:03.031Z,33.75
2022-08-10T05:20:47.305Z,33.75
2022-08-10T05:22:03.396Z,33.75
2022-08-10T05:22:44.504Z,33.75
2022-08-10T05:23:44.507Z,33.75
2022-08-10T05:24:44.497Z,33.75
2022-08-10T05:25:44.493Z,39.38
2022-08-10T05:27:09.136Z,39.38
2022-08-10T05:27:44.488Z,39.38
2022-08-10T05:28:44.482Z,39.38
2022-08-10T05:29:44.481Z,39.38
2022-08-10T05:30:44.485Z,39.38
2022-08-10T05:31:44.517Z,39.38
2022-08-10T05:32:56.301Z,39.38
2022-08-10T05:33:44.464Z,39.38
2022-08-10T05:34:44.457Z,39.38
2022-08-10T05:35:57.782Z,39.38
2022-08-10T05:36:44.451Z,39.38
2022-08-10T05:38:11.979Z,39.38
2022-08-10T05:38:44.443Z,39.38
2022-08-10T05:39:44.474Z,39.38
2022-08-10T05:40:46.452Z,39.38
2022-08-10T05:41:47.734Z,39.38
2022-08-10T05:42:44.442Z,39.38
2022-08-10T05:43:44.423Z,39.38
2022-08-10T05:44:44.415Z,39.38
2022-08-10T05:46:16.705Z,39.38
2022-08-10T05:46:44.411Z,45.00
2022-08-10T05:48:41.995Z,45.00
2022-08-10T05:48:59.252Z,45.00
2022-08-10T05:49:44.401Z,45.00
2022-08-10T05:50:44.393Z,45.00
2022-08-10T05:51:44.401Z,45.00
2022-08-10T05:52:44.387Z,45.00
2022-08-10T05:54:03.407Z,45.00
2022-08-10T05:54:44.376Z,45.00
2022-08-10T05:55:44.377Z,45.00
2022-08-10T05:56:56.299Z,45.00
2022-08-10T05:57:44.368Z,45.00
2022-08-10T05:58:44.400Z,45.00
2022-08-10T06:00:32.782Z,45.00
2022-08-10T06:00:49.776Z,45.00
2022-08-10T06:01:44.359Z,45.00
2022-08-10T06:02:44.706Z,45.00
2022-08-10T06:03:44.347Z,45.00
2022-08-10T06:04:44.349Z,45.00
2022-08-10T06:05:44.337Z,45.00
2022-08-10T06:06:44.334Z,50.63
2022-08-10T06:07:44.329Z,50.63
2022-08-10T06:08:44.329Z,50.63
2022-08-10T06:09:58.549Z,50.63
2022-08-10T06:12:23.600Z,50.63
2022-08-10T06:12:26.025Z,50.63
2022-08-10T06:12:54.982Z,50.63
2022-08-10T06:13:59.884Z,50.63
2022-08-10T06:14:44.303Z,50.63
2022-08-10T06:15:52.221Z,50.63
2022-08-10T06:16:44.318Z,50.63
2022-08-10T06:17:44.294Z,50.63
2022-08-10T06:18:44.288Z,50.63
2022-08-10T06:19:44.289Z,50.63
2022-08-10T06:20:44.292Z,50.63
2022-08-10T06:21:53.646Z,50.63
2022-08-10T06:22:44.280Z,50.63
2022-08-10T06:23:44.273Z,50.63
2022-08-10T06:25:12.290Z,50.63
2022-08-10T06:26:09.815Z,50.63
2022-08-10T06:26:44.251Z,50.63
2022-08-10T06:27:44.258Z,50.63
2022-08-10T06:29:02.347Z,50.63
2022-08-10T06:29:44.250Z,50.63
2022-08-10T06:30:44.245Z,50.63
2022-08-10T06:31:48.870Z,50.63
2022-08-10T06:32:44.237Z,50.63
2022-08-10T06:33:44.237Z,50.63
2022-08-10T06:34:44.234Z,50.63
2022-08-10T06:35:44.230Z,50.63
2022-08-10T06:36:44.226Z,50.63
2022-08-10T06:37:44.213Z,50.63
2022-08-10T06:38:44.214Z,56.25
2022-08-10T06:39:44.250Z,56.25
2022-08-10T06:40:44.212Z,56.25
2022-08-10T06:42:14.770Z,56.25
2022-08-10T06:42:44.203Z,56.25
2022-08-10T06:43:44.228Z,56.25
2022-08-10T06:44:44.197Z,56.25
2022-08-10T06:45:44.197Z,56.25
2022-08-10T06:46:48.037Z,56.25
2022-08-10T06:47:44.189Z,56.25
2022-08-10T06:48:44.184Z,56.25
2022-08-10T06:49:44.181Z,56.25
2022-08-10T06:50:55.899Z,56.25
2022-08-10T06:51:44.173Z,56.25
2022-08-10T06:52:44.203Z,56.25
2022-08-10T06:53:52.779Z,56.25
2022-08-10T06:54:44.160Z,56.25
2022-08-10T06:55:55.157Z,56.25
2022-08-10T06:57:01.602Z,56.25
2022-08-10T06:57:44.153Z,56.25
2022-08-10T06:58:44.148Z,56.25
2022-08-10T06:59:44.148Z,56.25
2022-08-10T07:00:44.229Z,56.25
2022-08-10T07:01:44.138Z,56.25
2022-08-10T07:02:44.132Z,56.25
2022-08-10T07:03:44.132Z,50.63
2022-08-10T07:04:44.126Z,50.63
2022-08-10T07:05:46.875Z,50.63
2022-08-10T07:06:44.120Z,50.63
2022-08-10T07:07:44.119Z,56.25
2022-08-10T07:08:44.113Z,50.63
2022-08-10T07:09:44.113Z,56.25
2022-08-10T07:10:45.865Z,56.25
2022-08-10T07:11:44.109Z,56.25
2022-08-10T07:12:44.107Z,56.25
2022-08-10T07:14:15.458Z,56.25
2022-08-10T07:14:44.094Z,56.25
2022-08-10T07:15:59.905Z,56.25
2022-08-10T07:16:44.088Z,56.25
2022-08-10T07:17:44.086Z,56.25
2022-08-10T07:18:44.083Z,56.25
2022-08-10T07:19:49.880Z,56.25
2022-08-10T07:20:44.077Z,56.25
2022-08-10T07:21:44.079Z,56.25
2022-08-10T07:23:08.331Z,56.25
2022-08-10T07:23:58.394Z,56.25
2022-08-10T07:24:44.063Z,56.25
2022-08-10T07:25:44.062Z,56.25
2022-08-10T07:26:44.056Z,56.25
2022-08-10T07:28:00.460Z,56.25
2022-08-10T07:28:47.948Z,56.25
2022-08-10T07:29:53.923Z,56.25
2022-08-10T07:30:44.045Z,56.25
2022-08-10T07:31:55.976Z,61.88
2022-08-10T07:32:44.037Z,61.88
2022-08-10T07:33:44.036Z,61.88
2022-08-10T07:34:44.031Z,61.88
2022-08-10T07:35:44.033Z,61.88
2022-08-10T07:36:44.025Z,61.88
2022-08-10T07:37:44.025Z,61.88
2022-08-10T07:38:44.021Z,61.88
2022-08-10T07:39:58.265Z,61.88
2022-08-10T07:40:44.043Z,61.88
2022-08-10T07:41:44.010Z,61.88
2022-08-10T07:42:46.032Z,61.88
2022-08-10T07:43:44.008Z,61.88
2022-08-10T07:44:44.002Z,61.88
2022-08-10T07:45:44.001Z,61.88
2022-08-10T07:46:43.996Z,61.88
2022-08-10T07:47:52.312Z,61.88
2022-08-10T07:48:43.991Z,61.88
2022-08-10T07:49:43.990Z,61.88
2022-08-10T07:50:43.990Z,61.88
2022-08-10T07:51:43.985Z,61.88
2022-08-10T07:52:43.980Z,61.88
2022-08-10T07:53:43.982Z,61.88
2022-08-10T07:54:43.983Z,67.50
2022-08-10T07:56:02.841Z,67.50
2022-08-10T07:56:50.262Z,67.50
2022-08-10T07:57:43.971Z,67.50
2022-08-10T07:58:46.466Z,67.50
2022-08-10T07:59:43.962Z,73.13
2022-08-10T08:00:43.976Z,67.50
2022-08-10T08:01:44.006Z,73.13
2022-08-10T08:02:43.952Z,67.50
2022-08-10T08:03:43.954Z,67.50
2022-08-10T08:04:43.946Z,67.50
2022-08-10T08:05:58.306Z,67.50
2022-08-10T08:06:43.943Z,67.50
2022-08-10T08:07:43.946Z,67.50
2022-08-10T08:08:43.949Z,67.50
2022-08-10T08:09:57.918Z,67.50
2022-08-10T08:10:43.935Z,67.50
2022-08-10T08:11:43.935Z,73.13
2022-08-10T08:12:43.926Z,73.13
2022-08-10T08:13:43.928Z,67.50
2022-08-10T08:14:43.922Z,67.50
2022-08-10T08:16:19.923Z,67.50
2022-08-10T08:16:43.922Z,67.50
2022-08-10T08:17:43.924Z,73.13
2022-08-10T08:18:58.264Z,73.13
2022-08-10T08:19:45.892Z,73.13
2022-08-10T08:20:43.911Z,73.13
2022-08-10T08:24:06.556Z,73.13
2022-08-10T08:24:06.695Z,73.13
2022-08-10T08:24:09.714Z,73.13
2022-08-10T08:24:43.902Z,73.13
2022-08-10T08:25:43.902Z,73.13
2022-08-10T08:26:46.141Z,73.13
2022-08-10T08:27:47.607Z,73.13
2022-08-10T08:28:43.898Z,73.13
2022-08-10T08:29:43.892Z,73.13
2022-08-10T08:30:48.700Z,73.13
2022-08-10T08:31:54.566Z,73.13
2022-08-10T08:32:43.884Z,73.13
2022-08-10T08:33:44.013Z,73.13
2022-08-10T08:34:43.881Z,73.13
2022-08-10T08:35:43.880Z,73.13
2022-08-10T08:36:43.882Z,73.13
2022-08-10T08:38:31.828Z,73.13
2022-08-10T08:38:43.873Z,73.13
2022-08-10T08:39:44.273Z,73.13
2022-08-10T08:40:43.868Z,78.75
2022-08-10T08:41:51.031Z,78.75
2022-08-10T08:43:47.840Z,78.75
2022-08-10T08:44:47.826Z,78.75
2022-08-10T08:46:40.930Z,78.75
2022-08-10T08:48:02.022Z,78.75
2022-08-10T08:50:08.561Z,78.75
2022-08-10T08:50:44.925Z,78.75
2022-08-10T08:52:37.984Z,78.75
2022-08-10T08:54:02.142Z,78.75
2022-08-10T08:56:05.028Z,78.75
2022-08-10T08:56:30.894Z,78.75
2022-08-10T08:58:23.980Z,78.75
2022-08-10T08:59:23.969Z,78.75
2022-08-10T09:01:37.935Z,84.38
2022-08-10T09:02:28.020Z,84.38
2022-08-10T09:04:31.906Z,84.38
2022-08-10T09:05:31.892Z,84.38
2022-08-10T09:08:00.909Z,84.38
2022-08-10T09:08:35.852Z,84.38
2022-08-10T09:10:39.827Z,84.38
2022-08-10T09:11:39.813Z,84.38
2022-08-10T09:13:43.773Z,84.38
2022-08-10T09:14:43.767Z,84.38
2022-08-10T09:16:47.740Z,84.38
2022-08-10T09:17:47.730Z,84.38
2022-08-10T09:19:51.700Z,84.38
2022-08-10T09:20:51.690Z,84.38
2022-08-10T09:22:44.585Z,84.38
2022-08-10T09:24:01.776Z,84.38
2022-08-10T09:25:48.564Z,84.38
2022-08-10T09:26:48.727Z,84.38
2022-08-10T09:29:12.550Z,84.38
2022-08-10T09:29:52.505Z,84.38
2022-08-10T09:36:15.121Z,84.38
2022-08-10T09:36:17.348Z,84.38
2022-08-10T09:36:24.758Z,84.38
2022-08-10T09:36:25.148Z,84.38
2022-08-10T09:38:02.179Z,84.38
2022-08-10T09:38:53.534Z,84.38
2022-08-10T09:41:03.934Z,90.00
2022-08-10T09:41:57.491Z,90.00
2022-08-10T09:43:50.577Z,90.00
2022-08-10T09:44:57.504Z,90.00
2022-08-10T09:46:54.551Z,90.00
2022-08-10T09:48:02.164Z,90.00
2022-08-10T09:49:56.984Z,95.63
2022-08-10T09:51:34.442Z,95.63
2022-08-10T09:52:40.507Z,101.25
2022-08-10T09:53:40.500Z,101.25
2022-08-10T09:56:19.070Z,106.88
2022-08-10T09:56:44.472Z,106.88
2022-08-10T09:58:48.457Z,101.25
2022-08-10T10:00:00.351Z,101.25
2022-08-10T10:01:58.157Z,101.25
2022-08-10T10:02:41.531Z,101.25
2022-08-10T10:04:45.513Z,106.88
2022-08-10T10:05:51.325Z,112.50
2022-08-10T10:07:49.470Z,118.13
2022-08-10T10:08:49.465Z,118.13
2022-08-10T10:10:53.449Z,129.38
2022-08-10T10:11:53.442Z,135.00
2022-08-10T10:14:04.020Z,129.38
2022-08-10T10:14:57.403Z,135.00
2022-08-10T10:17:01.381Z,140.63
2022-08-10T10:18:01.364Z,123.75
2022-08-10T10:20:05.335Z,118.13
2022-08-10T10:21:05.320Z,118.13
2022-08-10T10:23:09.312Z,90.00
2022-08-10T10:24:20.244Z,90.00
2022-08-10T10:26:18.345Z,135.00
2022-08-10T10:27:16.260Z,118.13
2022-08-10T10:29:44.665Z,101.25
2022-08-10T10:30:17.228Z,112.50
2022-08-10T10:32:10.128Z,146.25
2022-08-10T10:33:13.268Z,140.63
2022-08-10T10:35:03.216Z,129.38
2022-08-10T10:36:03.199Z,90.00
2022-08-10T10:38:10.220Z,101.25
2022-08-10T10:38:56.282Z,157.50
2022-08-10T10:41:00.264Z,163.13
2022-08-10T10:42:04.648Z,163.13
2022-08-10T10:44:04.221Z,157.50
2022-08-10T10:45:04.218Z,146.25
2022-08-10T10:46:57.365Z,95.63
2022-08-10T10:47:57.297Z,101.25
2022-08-10T10:50:01.275Z,180.00
2022-08-10T10:51:01.264Z,196.88
2022-08-10T10:53:05.250Z,191.25
2022-08-10T10:54:05.245Z,196.88
2022-08-10T10:56:14.378Z,168.75
2022-08-10T10:57:09.202Z,219.38
2022-08-10T10:59:16.142Z,151.88
2022-08-10T11:00:13.174Z,140.63
2022-08-10T11:02:06.070Z,213.75
2022-08-10T11:03:06.058Z,157.50
2022-08-10T11:05:10.033Z,140.63
2022-08-10T11:06:10.025Z,135.00
2022-08-10T11:08:03.112Z,208.13
2022-08-10T11:09:03.108Z,213.75
2022-08-10T11:11:20.462Z,213.75
2022-08-10T11:12:07.087Z,208.13
2022-08-10T11:14:26.463Z,196.88
2022-08-10T11:15:11.052Z,196.88
2022-08-10T11:17:15.037Z,196.88
2022-08-10T11:18:15.025Z,196.88
2022-08-10T11:20:19.005Z,202.50
2022-08-10T11:21:18.993Z,202.50
2022-08-10T11:23:22.989Z,213.75
2022-08-10T11:24:47.147Z,213.75
2022-08-10T11:26:26.942Z,219.38
2022-08-10T11:27:26.922Z,225.00
2022-08-10T11:29:30.897Z,241.88
2022-08-10T11:30:30.892Z,230.63
2022-08-10T11:32:23.801Z,343.13
2022-08-10T11:33:31.114Z,393.75
2022-08-10T11:35:31.612Z,444.38
2022-08-10T11:36:27.766Z,466.88
2022-08-10T11:38:42.826Z,753.75
2022-08-10T11:39:31.762Z,1243.13
2022-08-10T11:42:10.243Z,1518.75
2022-08-10T11:42:36.500Z,1535.63
2022-08-10T11:44:39.787Z,1490.63
2022-08-10T11:45:52.224Z,1546.88
2022-08-10T11:47:32.772Z,1524.38
2022-08-10T11:48:53.788Z,1558.13
2022-08-10T11:50:36.745Z,1535.63
2022-08-10T11:51:36.738Z,1552.50
2022-08-10T11:53:41.209Z,1591.88
2022-08-10T11:54:41.201Z,1659.38
2022-08-10T11:55:41.211Z,1125.00
2022-08-10T11:56:41.214Z,1530.00
2022-08-10T11:57:54.013Z,1535.63
2022-08-10T11:58:41.217Z,1580.63
2022-08-10T11:59:41.224Z,1569.38
2022-08-10T12:00:41.226Z,1552.50
2022-08-10T12:01:41.229Z,1597.50
2022-08-10T12:02:41.371Z,1608.75
2022-08-10T12:03:41.236Z,1603.13
2022-08-10T12:04:41.234Z,1631.25
2022-08-10T12:05:48.353Z,1608.75
2022-08-10T12:06:55.371Z,1591.88
2022-08-10T12:10:06.364Z,1535.63
2022-08-10T12:10:06.365Z,1530.00
2022-08-10T12:10:10.025Z,1490.63
2022-08-10T12:10:41.266Z,1496.25
2022-08-10T12:11:41.268Z,1485.00
2022-08-10T12:12:41.268Z,1434.38
2022-08-10T12:13:53.897Z,1406.25
2022-08-10T12:14:41.276Z,1400.63
2022-08-10T12:15:41.284Z,1316.25
2022-08-10T12:16:41.289Z,1209.38
2022-08-10T12:17:41.321Z,1068.75
2022-08-10T12:18:41.295Z,916.88
2022-08-10T12:20:02.282Z,781.88
2022-08-10T12:20:41.306Z,708.75
2022-08-10T12:21:41.315Z,652.50
2022-08-10T12:22:41.304Z,618.75
2022-08-10T12:23:41.319Z,613.13
2022-08-10T12:24:41.323Z,601.88
2022-08-10T12:25:55.934Z,585.00
2022-08-10T12:26:42.648Z,579.38
2022-08-10T12:27:41.338Z,562.50
2022-08-10T12:28:50.545Z,551.25
2022-08-10T12:29:41.347Z,556.88
2022-08-10T12:30:41.353Z,545.63
2022-08-10T12:31:41.359Z,534.38
2022-08-10T12:32:41.358Z,528.75
2022-08-10T12:34:01.816Z,528.75
2022-08-10T12:34:41.368Z,517.50
2022-08-10T12:35:56.139Z,511.88
2022-08-10T12:36:41.378Z,517.50
2022-08-10T12:37:41.381Z,517.50
2022-08-10T12:38:41.385Z,511.88
2022-08-10T12:39:41.458Z,511.88
2022-08-10T12:40:41.438Z,511.88
2022-08-10T12:41:44.960Z,511.88
2022-08-10T12:42:42.162Z,506.25
2022-08-10T12:44:07.841Z,506.25
2022-08-10T12:44:42.748Z,500.63
2022-08-10T12:45:41.416Z,500.63
2022-08-10T12:46:41.416Z,506.25
2022-08-10T12:47:41.417Z,500.63
2022-08-10T12:48:41.426Z,500.63
2022-08-10T12:49:41.425Z,500.63
2022-08-10T12:50:41.429Z,500.63
2022-08-10T12:51:41.433Z,506.25
2022-08-10T12:52:41.433Z,495.00
2022-08-10T12:53:41.451Z,495.00
2022-08-10T12:54:41.443Z,500.63
2022-08-10T12:55:41.454Z,483.75
2022-08-10T12:56:41.453Z,500.63
2022-08-10T12:57:41.455Z,495.00
2022-08-10T12:58:59.133Z,489.38
2022-08-10T12:59:42.979Z,489.38
2022-08-10T13:00:59.628Z,489.38
2022-08-10T13:02:08.629Z,489.38
2022-08-10T13:02:46.614Z,489.38
2022-08-10T13:04:20.979Z,483.75
2022-08-10T13:04:41.476Z,483.75
2022-08-10T13:06:02.025Z,483.75
2022-08-10T13:06:41.488Z,478.13
2022-08-10T13:08:03.645Z,489.38
2022-08-10T13:08:41.493Z,489.38
2022-08-10T13:09:56.625Z,495.00
2022-08-10T13:10:41.502Z,495.00
2022-08-10T13:12:37.209Z,506.25
2022-08-10T13:12:41.510Z,511.88
2022-08-10T13:13:41.514Z,534.38
2022-08-10T13:14:41.520Z,540.00
2022-08-10T13:15:49.127Z,545.63
2022-08-10T13:16:41.528Z,573.75
2022-08-10T13:17:42.769Z,601.88
2022-08-10T13:18:41.532Z,624.38
2022-08-10T13:19:56.013Z,641.25
2022-08-10T13:20:41.543Z,635.63
2022-08-10T13:21:41.550Z,303.75
2022-08-10T13:22:41.547Z,180.00
2022-08-10T13:23:41.554Z,253.13
2022-08-10T13:24:41.555Z,444.38
2022-08-10T13:25:41.566Z,607.50
2022-08-10T13:27:23.575Z,663.75
2022-08-10T13:27:59.759Z,663.75
2022-08-10T13:28:45.225Z,624.38
2022-08-10T13:29:41.579Z,686.25
2022-08-10T13:30:41.580Z,691.88
2022-08-10T13:32:03.792Z,703.13
2022-08-10T13:32:41.587Z,708.75
2022-08-10T13:34:38.754Z,714.38
2022-08-10T13:34:44.976Z,720.00
2022-08-10T13:35:41.603Z,725.63
2022-08-10T13:36:41.640Z,731.25
2022-08-10T13:37:41.611Z,736.88
2022-08-10T13:38:41.609Z,742.50
2022-08-10T13:39:59.163Z,753.75
2022-08-10T13:40:41.626Z,765.00
2022-08-10T13:41:41.627Z,765.00
2022-08-10T13:42:41.813Z,770.63
2022-08-10T13:43:41.634Z,781.88
2022-08-10T13:44:41.634Z,787.50
2022-08-10T13:45:43.983Z,798.75
2022-08-10T13:46:41.650Z,804.38
2022-08-10T13:47:48.808Z,815.63
2022-08-10T13:48:41.654Z,826.88
2022-08-10T13:49:41.657Z,849.38
2022-08-10T13:50:41.668Z,855.00
2022-08-10T13:51:54.259Z,883.13
2022-08-10T13:52:41.674Z,905.63
2022-08-10T13:53:41.680Z,916.88
2022-08-10T13:54:41.687Z,922.50
2022-08-10T13:55:53.355Z,939.38
2022-08-10T13:56:41.696Z,573.75
2022-08-10T13:57:47.660Z,534.38
2022-08-10T13:58:41.703Z,495.00
2022-08-10T14:00:35.420Z,686.25
2022-08-10T14:00:41.713Z,956.25
2022-08-10T14:01:41.832Z,1012.50
2022-08-10T14:02:41.724Z,1023.75
2022-08-10T14:03:41.732Z,905.63
2022-08-10T14:04:41.738Z,1057.50
2022-08-10T14:05:41.743Z,1063.13
2022-08-10T14:06:41.746Z,984.38
2022-08-10T14:08:00.570Z,669.38
2022-08-10T14:08:41.757Z,596.25
2022-08-10T14:09:41.764Z,438.75
2022-08-10T14:11:09.497Z,365.63
2022-08-10T14:11:41.774Z,185.63
2022-08-10T14:12:41.980Z,168.75
2022-08-10T14:13:41.784Z,151.88
2022-08-10T14:14:41.797Z,146.25
2022-08-10T14:15:41.801Z,146.25
2022-08-10T14:16:41.801Z,180.00
2022-08-10T14:17:44.899Z,258.75
2022-08-10T14:18:41.804Z,528.75
2022-08-10T14:19:43.300Z,720.00
2022-08-10T14:20:41.817Z,635.63
2022-08-10T14:21:41.826Z,646.88
2022-08-10T14:22:41.926Z,630.00
2022-08-10T14:23:41.828Z,523.13
2022-08-10T14:24:41.835Z,669.38
2022-08-10T14:25:41.844Z,753.75
2022-08-10T14:26:41.842Z,691.88
2022-08-10T14:28:03.107Z,855.00
2022-08-10T14:28:41.855Z,911.25